sensor_id;sensor_type;location;lat;lon;timestamp;pressure;altitude;pressure_sealevel;temperature;humidity
68506;BME280;55509;50.680;17.942;2023-02-18T00:00:39;99401.36;;;8.62;87.27
68506;BME280;55509;50.680;17.942;2023-02-18T00:03:54;99407.04;;;8.59;86.91
68506;BME280;55509;50.680;17.942;2023-02-18T00:06:55;99407.75;;;8.58;86.85
68506;BME280;55509;50.680;17.942;2023-02-18T00:09:57;99402.48;;;8.59;86.17
68506;BME280;55509;50.680;17.942;2023-02-18T00:12:58;99406.91;;;8.56;85.94
68506;BME280;55509;50.680;17.942;2023-02-18T00:16:02;99411.17;;;8.54;84.91
68506;BME280;55509;50.680;17.942;2023-02-18T00:19:05;99416.45;;;8.52;84.42
68506;BME280;55509;50.680;17.942;2023-02-18T00:22:07;99423.20;;;8.49;83.88
68506;BME280;55509;50.680;17.942;2023-02-18T00:25:08;99422.75;;;8.46;83.57
68506;BME280;55509;50.680;17.942;2023-02-18T00:28:10;99424.05;;;8.42;83.07
68506;BME280;55509;50.680;17.942;2023-02-18T00:31:12;99427.20;;;8.42;82.62
68506;BME280;55509;50.680;17.942;2023-02-18T00:34:14;99426.29;;;8.44;82.29
68506;BME280;55509;50.680;17.942;2023-02-18T00:37:16;99426.23;;;8.46;81.20
68506;BME280;55509;50.680;17.942;2023-02-18T00:40:18;99431.64;;;8.47;80.13
68506;BME280;55509;50.680;17.942;2023-02-18T00:43:19;99426.28;;;8.45;77.24
68506;BME280;55509;50.680;17.942;2023-02-18T00:46:21;99435.07;;;8.43;76.22
68506;BME280;55509;50.680;17.942;2023-02-18T00:49:23;99445.48;;;8.40;76.12
68506;BME280;55509;50.680;17.942;2023-02-18T00:52:25;99450.36;;;8.33;75.16
68506;BME280;55509;50.680;17.942;2023-02-18T00:55:26;99464.27;;;8.30;75.48
68506;BME280;55509;50.680;17.942;2023-02-18T00:58:28;99464.64;;;8.29;75.51
68506;BME280;55509;50.680;17.942;2023-02-18T01:01:30;99469.42;;;8.26;73.69
68506;BME280;55509;50.680;17.942;2023-02-18T01:04:31;99469.26;;;8.27;71.60
68506;BME280;55509;50.680;17.942;2023-02-18T01:07:33;99474.90;;;8.25;69.47
68506;BME280;55509;50.680;17.942;2023-02-18T01:10:35;99478.98;;;8.22;66.46
68506;BME280;55509;50.680;17.942;2023-02-18T01:13:37;99481.00;;;8.18;66.27
68506;BME280;55509;50.680;17.942;2023-02-18T01:16:39;99484.81;;;8.12;64.71
68506;BME280;55509;50.680;17.942;2023-02-18T01:19:40;99483.16;;;8.07;64.87
68506;BME280;55509;50.680;17.942;2023-02-18T01:22:42;99482.11;;;7.98;65.36
68506;BME280;55509;50.680;17.942;2023-02-18T01:25:44;99484.94;;;7.88;65.37
68506;BME280;55509;50.680;17.942;2023-02-18T01:28:46;99487.36;;;7.81;65.80
68506;BME280;55509;50.680;17.942;2023-02-18T01:31:47;99480.32;;;7.74;65.68
68506;BME280;55509;50.680;17.942;2023-02-18T01:34:49;99480.90;;;7.71;65.91
68506;BME280;55509;50.680;17.942;2023-02-18T01:37:50;99484.63;;;7.68;66.42
68506;BME280;55509;50.680;17.942;2023-02-18T01:40:52;99481.71;;;7.65;66.66
68506;BME280;55509;50.680;17.942;2023-02-18T01:47:31;99481.88;;;7.65;65.30
68506;BME280;55509;50.680;17.942;2023-02-18T01:50:33;99471.14;;;7.69;65.15
68506;BME280;55509;50.680;17.942;2023-02-18T01:53:44;99473.41;;;7.69;65.04
68506;BME280;55509;50.680;17.942;2023-02-18T01:57:30;99477.55;;;7.73;65.48
68506;BME280;55509;50.680;17.942;2023-02-18T02:00:13;99480.54;;;7.72;66.06
68506;BME280;55509;50.680;17.942;2023-02-18T02:03:15;99479.56;;;7.68;66.49
68506;BME280;55509;50.680;17.942;2023-02-18T02:06:19;99478.23;;;7.65;66.71
68506;BME280;55509;50.680;17.942;2023-02-18T02:09:21;99479.40;;;7.58;67.53
68506;BME280;55509;50.680;17.942;2023-02-18T02:34:51;99497.70;;;7.63;57.40
68506;BME280;55509;50.680;17.942;2023-02-18T02:50:38;99501.90;;;7.52;56.19
68506;BME280;55509;50.680;17.942;2023-02-18T02:53:41;99514.13;;;7.44;56.79
68506;BME280;55509;50.680;17.942;2023-02-18T02:56:43;99510.27;;;7.34;57.23
68506;BME280;55509;50.680;17.942;2023-02-18T02:59:46;99514.47;;;7.25;57.97
68506;BME280;55509;50.680;17.942;2023-02-18T03:03:04;99510.99;;;7.13;58.65
68506;BME280;55509;50.680;17.942;2023-02-18T03:12:47;99519.27;;;6.88;59.48
68506;BME280;55509;50.680;17.942;2023-02-18T03:15:58;99518.88;;;6.90;58.92
68506;BME280;55509;50.680;17.942;2023-02-18T03:22:26;99516.95;;;6.90;59.19
68506;BME280;55509;50.680;17.942;2023-02-18T03:25:29;99511.52;;;6.90;59.41
68506;BME280;55509;50.680;17.942;2023-02-18T03:28:32;99508.44;;;6.87;59.77
68506;BME280;55509;50.680;17.942;2023-02-18T03:31:35;99513.02;;;6.84;60.06
68506;BME280;55509;50.680;17.942;2023-02-18T03:34:39;99513.48;;;6.78;60.82
68506;BME280;55509;50.680;17.942;2023-02-18T03:37:44;99516.38;;;6.70;60.98
68506;BME280;55509;50.680;17.942;2023-02-18T03:40:48;99524.48;;;6.66;59.57
68506;BME280;55509;50.680;17.942;2023-02-18T03:43:54;99529.52;;;6.68;58.37
68506;BME280;55509;50.680;17.942;2023-02-18T03:47:00;99524.23;;;6.71;57.12
68506;BME280;55509;50.680;17.942;2023-02-18T03:50:02;99533.48;;;6.72;55.41
68506;BME280;55509;50.680;17.942;2023-02-18T03:53:04;99537.84;;;6.73;55.55
68506;BME280;55509;50.680;17.942;2023-02-18T03:56:05;99544.84;;;6.72;55.52
68506;BME280;55509;50.680;17.942;2023-02-18T03:59:07;99541.21;;;6.69;54.90
68506;BME280;55509;50.680;17.942;2023-02-18T04:02:09;99541.60;;;6.66;55.51
68506;BME280;55509;50.680;17.942;2023-02-18T04:05:11;99544.11;;;6.61;55.09
68506;BME280;55509;50.680;17.942;2023-02-18T04:08:12;99546.77;;;6.58;54.63
68506;BME280;55509;50.680;17.942;2023-02-18T04:11:14;99550.64;;;6.58;54.06
68506;BME280;55509;50.680;17.942;2023-02-18T04:14:15;99552.91;;;6.57;53.95
68506;BME280;55509;50.680;17.942;2023-02-18T04:17:17;99556.98;;;6.54;54.03
68506;BME280;55509;50.680;17.942;2023-02-18T04:20:18;99562.80;;;6.49;54.05
68506;BME280;55509;50.680;17.942;2023-02-18T04:23:20;99565.81;;;6.45;54.39
68506;BME280;55509;50.680;17.942;2023-02-18T04:26:21;99564.65;;;6.42;53.37
68506;BME280;55509;50.680;17.942;2023-02-18T04:29:23;99562.71;;;6.41;53.56
68506;BME280;55509;50.680;17.942;2023-02-18T04:32:24;99567.98;;;6.40;53.22
68506;BME280;55509;50.680;17.942;2023-02-18T04:35:26;99570.79;;;6.39;52.82
68506;BME280;55509;50.680;17.942;2023-02-18T04:38:28;99572.89;;;6.38;52.59
68506;BME280;55509;50.680;17.942;2023-02-18T04:41:29;99569.70;;;6.43;52.04
68506;BME280;55509;50.680;17.942;2023-02-18T04:44:30;99571.80;;;6.43;52.20
68506;BME280;55509;50.680;17.942;2023-02-18T04:47:32;99572.90;;;6.38;52.51
68506;BME280;55509;50.680;17.942;2023-02-18T04:50:34;99576.63;;;6.34;52.71
68506;BME280;55509;50.680;17.942;2023-02-18T04:53:35;99574.73;;;6.31;52.12
68506;BME280;55509;50.680;17.942;2023-02-18T04:56:37;99568.31;;;6.28;53.01
68506;BME280;55509;50.680;17.942;2023-02-18T04:59:38;99568.01;;;6.24;52.71
68506;BME280;55509;50.680;17.942;2023-02-18T05:02:40;99564.56;;;6.20;53.03
68506;BME280;55509;50.680;17.942;2023-02-18T05:05:41;99565.46;;;6.18;52.35
68506;BME280;55509;50.680;17.942;2023-02-18T05:08:43;99569.98;;;6.19;51.48
68506;BME280;55509;50.680;17.942;2023-02-18T05:11:44;99571.68;;;6.23;51.30
68506;BME280;55509;50.680;17.942;2023-02-18T05:14:47;99571.52;;;6.22;51.02
68506;BME280;55509;50.680;17.942;2023-02-18T05:17:49;99575.89;;;6.21;51.07
68506;BME280;55509;50.680;17.942;2023-02-18T05:20:50;99582.20;;;6.20;51.03
68506;BME280;55509;50.680;17.942;2023-02-18T05:23:52;99582.89;;;6.20;51.32
68506;BME280;55509;50.680;17.942;2023-02-18T05:26:53;99580.94;;;6.23;50.73
68506;BME280;55509;50.680;17.942;2023-02-18T05:29:55;99584.20;;;6.28;50.58
68506;BME280;55509;50.680;17.942;2023-02-18T05:32:56;99585.88;;;6.33;50.32
68506;BME280;55509;50.680;17.942;2023-02-18T05:35:58;99583.71;;;6.39;50.25
68506;BME280;55509;50.680;17.942;2023-02-18T05:38:59;99590.27;;;6.44;49.79
68506;BME280;55509;50.680;17.942;2023-02-18T05:42:00;99590.23;;;6.48;49.52
68506;BME280;55509;50.680;17.942;2023-02-18T05:45:02;99588.42;;;6.54;49.18
68506;BME280;55509;50.680;17.942;2023-02-18T05:48:04;99590.98;;;6.57;48.52
68506;BME280;55509;50.680;17.942;2023-02-18T05:51:06;99589.89;;;6.61;48.18
68506;BME280;55509;50.680;17.942;2023-02-18T05:54:07;99596.10;;;6.67;48.18
68506;BME280;55509;50.680;17.942;2023-02-18T05:57:09;99600.23;;;6.71;48.28
68506;BME280;55509;50.680;17.942;2023-02-18T06:00:12;99615.58;;;6.74;47.77
68506;BME280;55509;50.680;17.942;2023-02-18T06:03:13;99613.59;;;6.79;47.35
68506;BME280;55509;50.680;17.942;2023-02-18T06:06:15;99610.21;;;6.84;47.05
68506;BME280;55509;50.680;17.942;2023-02-18T06:09:16;99610.67;;;6.88;47.46
68506;BME280;55509;50.680;17.942;2023-02-18T06:12:18;99617.11;;;6.90;46.81
68506;BME280;55509;50.680;17.942;2023-02-18T06:15:19;99614.25;;;6.95;47.32
68506;BME280;55509;50.680;17.942;2023-02-18T06:18:21;99613.84;;;6.99;46.88
68506;BME280;55509;50.680;17.942;2023-02-18T06:21:23;99613.93;;;7.05;47.07
68506;BME280;55509;50.680;17.942;2023-02-18T06:24:24;99615.64;;;7.07;46.59
68506;BME280;55509;50.680;17.942;2023-02-18T06:27:26;99617.38;;;7.08;46.93
68506;BME280;55509;50.680;17.942;2023-02-18T06:30:27;99627.86;;;7.09;47.31
68506;BME280;55509;50.680;17.942;2023-02-18T06:33:29;99631.35;;;7.09;46.96
68506;BME280;55509;50.680;17.942;2023-02-18T06:36:30;99636.22;;;7.11;47.39
68506;BME280;55509;50.680;17.942;2023-02-18T06:39:32;99637.25;;;7.13;47.33
68506;BME280;55509;50.680;17.942;2023-02-18T06:42:33;99630.37;;;7.16;46.83
68506;BME280;55509;50.680;17.942;2023-02-18T06:45:35;99642.05;;;7.19;47.31
68506;BME280;55509;50.680;17.942;2023-02-18T06:48:36;99646.27;;;7.18;47.52
68506;BME280;55509;50.680;17.942;2023-02-18T06:51:39;99642.77;;;7.18;47.38
68506;BME280;55509;50.680;17.942;2023-02-18T06:54:40;99632.95;;;7.19;48.52
68506;BME280;55509;50.680;17.942;2023-02-18T06:57:42;99632.77;;;7.20;48.07
68506;BME280;55509;50.680;17.942;2023-02-18T07:00:44;99633.23;;;7.23;47.96
68506;BME280;55509;50.680;17.942;2023-02-18T07:03:45;99635.80;;;7.27;47.77
68506;BME280;55509;50.680;17.942;2023-02-18T07:06:47;99638.92;;;7.28;48.42
68506;BME280;55509;50.680;17.942;2023-02-18T07:09:48;99641.58;;;7.27;48.55
68506;BME280;55509;50.680;17.942;2023-02-18T07:12:50;99638.45;;;7.25;48.24
68506;BME280;55509;50.680;17.942;2023-02-18T07:15:52;99637.02;;;7.27;47.99
68506;BME280;55509;50.680;17.942;2023-02-18T07:18:53;99643.63;;;7.30;48.51
68506;BME280;55509;50.680;17.942;2023-02-18T07:21:54;99636.80;;;7.31;48.61
68506;BME280;55509;50.680;17.942;2023-02-18T07:24:57;99640.08;;;7.34;48.18
68506;BME280;55509;50.680;17.942;2023-02-18T07:27:59;99631.42;;;7.39;47.77
68506;BME280;55509;50.680;17.942;2023-02-18T07:31:00;99632.91;;;7.44;48.39
68506;BME280;55509;50.680;17.942;2023-02-18T07:34:02;99630.43;;;7.47;48.39
68506;BME280;55509;50.680;17.942;2023-02-18T07:37:03;99633.14;;;7.52;47.93
68506;BME280;55509;50.680;17.942;2023-02-18T07:40:11;99632.86;;;7.58;47.68
68506;BME280;55509;50.680;17.942;2023-02-18T07:43:13;99628.77;;;7.63;47.45
68506;BME280;55509;50.680;17.942;2023-02-18T07:46:14;99629.58;;;7.66;47.11
68506;BME280;55509;50.680;17.942;2023-02-18T07:49:16;99635.30;;;7.69;47.93
68506;BME280;55509;50.680;17.942;2023-02-18T07:52:17;99629.34;;;7.70;48.45
68506;BME280;55509;50.680;17.942;2023-02-18T07:55:19;99624.25;;;7.71;48.50
68506;BME280;55509;50.680;17.942;2023-02-18T07:58:21;99624.60;;;7.71;48.96
68506;BME280;55509;50.680;17.942;2023-02-18T08:01:23;99623.52;;;7.73;48.92
68506;BME280;55509;50.680;17.942;2023-02-18T08:04:25;99624.51;;;7.76;48.80
68506;BME280;55509;50.680;17.942;2023-02-18T08:07:26;99630.92;;;7.79;49.14
68506;BME280;55509;50.680;17.942;2023-02-18T08:10:28;99632.11;;;7.82;49.19
68506;BME280;55509;50.680;17.942;2023-02-18T08:13:29;99628.55;;;7.85;49.38
68506;BME280;55509;50.680;17.942;2023-02-18T08:16:31;99634.42;;;7.89;49.30
68506;BME280;55509;50.680;17.942;2023-02-18T08:19:33;99635.20;;;7.95;49.60
68506;BME280;55509;50.680;17.942;2023-02-18T08:22:34;99640.50;;;8.02;49.41
68506;BME280;55509;50.680;17.942;2023-02-18T08:25:36;99644.52;;;8.12;49.55
68506;BME280;55509;50.680;17.942;2023-02-18T08:28:38;99637.89;;;8.21;49.12
68506;BME280;55509;50.680;17.942;2023-02-18T08:31:39;99639.33;;;8.27;49.10
68506;BME280;55509;50.680;17.942;2023-02-18T08:34:40;99634.02;;;8.30;49.20
68506;BME280;55509;50.680;17.942;2023-02-18T08:37:42;99633.29;;;8.32;49.49
68506;BME280;55509;50.680;17.942;2023-02-18T08:40:44;99630.77;;;8.36;49.86
68506;BME280;55509;50.680;17.942;2023-02-18T08:43:46;99630.41;;;8.35;49.58
68506;BME280;55509;50.680;17.942;2023-02-18T08:46:48;99629.67;;;8.38;49.31
68506;BME280;55509;50.680;17.942;2023-02-18T08:49:51;99631.40;;;8.39;49.63
68506;BME280;55509;50.680;17.942;2023-02-18T08:52:52;99636.52;;;8.46;49.69
68506;BME280;55509;50.680;17.942;2023-02-18T08:55:54;99641.40;;;8.58;49.60
68506;BME280;55509;50.680;17.942;2023-02-18T08:58:55;99646.45;;;8.76;49.79
68506;BME280;55509;50.680;17.942;2023-02-18T09:01:57;99649.23;;;8.94;49.67
68506;BME280;55509;50.680;17.942;2023-02-18T09:04:58;99649.52;;;9.04;49.29
68506;BME280;55509;50.680;17.942;2023-02-18T09:08:00;99647.73;;;9.05;48.79
68506;BME280;55509;50.680;17.942;2023-02-18T09:11:02;99647.83;;;9.01;48.61
68506;BME280;55509;50.680;17.942;2023-02-18T09:14:05;99645.30;;;8.97;48.84
68506;BME280;55509;50.680;17.942;2023-02-18T09:17:06;99645.98;;;8.98;49.23
68506;BME280;55509;50.680;17.942;2023-02-18T09:20:08;99650.10;;;9.02;49.14
68506;BME280;55509;50.680;17.942;2023-02-18T09:23:09;99645.92;;;9.08;48.05
68506;BME280;55509;50.680;17.942;2023-02-18T09:26:15;99649.83;;;9.06;47.74
68506;BME280;55509;50.680;17.942;2023-02-18T09:29:17;99650.60;;;8.95;48.21
68506;BME280;55509;50.680;17.942;2023-02-18T09:32:20;99660.95;;;8.78;48.46
68506;BME280;55509;50.680;17.942;2023-02-18T09:35:21;99673.77;;;8.61;49.05
68506;BME280;55509;50.680;17.942;2023-02-18T09:38:23;99676.20;;;8.41;49.45
68506;BME280;55509;50.680;17.942;2023-02-18T09:41:33;99664.40;;;8.26;49.82
68506;BME280;55509;50.680;17.942;2023-02-18T09:47:40;99661.62;;;8.06;51.42
68506;BME280;55509;50.680;17.942;2023-02-18T09:50:42;99659.98;;;8.00;51.67
68506;BME280;55509;50.680;17.942;2023-02-18T09:53:51;99662.45;;;8.00;51.89
68506;BME280;55509;50.680;17.942;2023-02-18T09:56:53;99649.99;;;8.00;52.44
68506;BME280;55509;50.680;17.942;2023-02-18T10:03:23;99651.42;;;7.99;52.87
68506;BME280;55509;50.680;17.942;2023-02-18T10:06:26;99651.46;;;7.96;53.33
68506;BME280;55509;50.680;17.942;2023-02-18T10:09:34;99647.79;;;7.96;53.84
68506;BME280;55509;50.680;17.942;2023-02-18T10:12:35;99641.64;;;7.98;54.41
68506;BME280;55509;50.680;17.942;2023-02-18T10:15:38;99640.14;;;8.03;54.52
68506;BME280;55509;50.680;17.942;2023-02-18T10:18:41;99629.86;;;8.10;55.00
68506;BME280;55509;50.680;17.942;2023-02-18T10:21:45;99628.86;;;8.16;54.94
68506;BME280;55509;50.680;17.942;2023-02-18T10:24:52;99621.30;;;8.27;54.92
68506;BME280;55509;50.680;17.942;2023-02-18T10:27:54;99609.33;;;8.39;54.85
68506;BME280;55509;50.680;17.942;2023-02-18T10:31:07;99603.15;;;8.59;54.54
68506;BME280;55509;50.680;17.942;2023-02-18T10:34:28;99608.42;;;8.75;54.33
68506;BME280;55509;50.680;17.942;2023-02-18T10:37:37;99608.45;;;8.74;54.45
68506;BME280;55509;50.680;17.942;2023-02-18T10:50:04;99580.42;;;8.30;56.21
68506;BME280;55509;50.680;17.942;2023-02-18T10:59:34;99562.25;;;8.18;57.78
68506;BME280;55509;50.680;17.942;2023-02-18T11:02:36;99559.73;;;8.14;58.62
68506;BME280;55509;50.680;17.942;2023-02-18T11:05:38;99555.64;;;8.08;59.90
68506;BME280;55509;50.680;17.942;2023-02-18T11:08:41;99549.35;;;7.98;60.80
68506;BME280;55509;50.680;17.942;2023-02-18T11:11:44;99553.04;;;7.88;61.43
68506;BME280;55509;50.680;17.942;2023-02-18T11:14:47;99547.06;;;7.80;62.15
68506;BME280;55509;50.680;17.942;2023-02-18T11:17:50;99542.11;;;7.73;62.61
68506;BME280;55509;50.680;17.942;2023-02-18T11:20:57;99530.83;;;7.68;63.21
68506;BME280;55509;50.680;17.942;2023-02-18T11:24:05;99525.48;;;7.64;64.09
68506;BME280;55509;50.680;17.942;2023-02-18T11:27:07;99526.81;;;7.59;64.65
68506;BME280;55509;50.680;17.942;2023-02-18T11:33:34;99514.48;;;7.44;65.95
68506;BME280;55509;50.680;17.942;2023-02-18T11:36:37;99514.79;;;7.36;66.41
68506;BME280;55509;50.680;17.942;2023-02-18T11:39:43;99508.42;;;7.30;66.76
68506;BME280;55509;50.680;17.942;2023-02-18T11:42:46;99506.93;;;7.25;67.00
68506;BME280;55509;50.680;17.942;2023-02-18T11:45:47;99502.56;;;7.25;67.36
68506;BME280;55509;50.680;17.942;2023-02-18T11:49:20;99498.48;;;7.29;67.94
68506;BME280;55509;50.680;17.942;2023-02-18T11:52:32;99495.88;;;7.28;68.03
68506;BME280;55509;50.680;17.942;2023-02-18T11:55:34;99483.81;;;7.17;68.74
68506;BME280;55509;50.680;17.942;2023-02-18T11:58:40;99475.77;;;7.08;69.09
68506;BME280;55509;50.680;17.942;2023-02-18T12:01:49;99468.33;;;7.02;69.74
68506;BME280;55509;50.680;17.942;2023-02-18T12:04:54;99456.30;;;7.00;70.23
68506;BME280;55509;50.680;17.942;2023-02-18T12:07:58;99451.03;;;7.02;70.44
68506;BME280;55509;50.680;17.942;2023-02-18T12:11:05;99446.87;;;7.00;70.76
68506;BME280;55509;50.680;17.942;2023-02-18T12:14:19;99440.11;;;6.96;70.96
68506;BME280;55509;50.680;17.942;2023-02-18T12:20:57;99412.38;;;6.93;72.28
68506;BME280;55509;50.680;17.942;2023-02-18T12:33:29;99386.07;;;6.88;73.34
68506;BME280;55509;50.680;17.942;2023-02-18T12:36:54;99371.86;;;6.91;74.08
68506;BME280;55509;50.680;17.942;2023-02-18T12:43:14;99345.92;;;6.86;74.47
68506;BME280;55509;50.680;17.942;2023-02-18T12:55:33;99323.76;;;6.64;76.11
68506;BME280;55509;50.680;17.942;2023-02-18T13:01:45;99308.69;;;6.47;77.10
68506;BME280;55509;50.680;17.942;2023-02-18T13:05:07;99291.52;;;6.40;78.13
68506;BME280;55509;50.680;17.942;2023-02-18T13:18:11;99263.36;;;6.21;80.11
68506;BME280;55509;50.680;17.942;2023-02-18T13:21:16;99261.26;;;6.11;80.55
68506;BME280;55509;50.680;17.942;2023-02-18T13:24:25;99246.70;;;6.04;80.70
68506;BME280;55509;50.680;17.942;2023-02-18T13:30:43;99230.52;;;6.00;82.12
68506;BME280;55509;50.680;17.942;2023-02-18T13:34:04;99222.67;;;5.99;82.76
68506;BME280;55509;50.680;17.942;2023-02-18T13:40:31;99195.62;;;5.99;83.89
68506;BME280;55509;50.680;17.942;2023-02-18T13:43:33;99186.06;;;5.96;84.29
68506;BME280;55509;50.680;17.942;2023-02-18T13:49:50;99178.19;;;5.88;85.36
68506;BME280;55509;50.680;17.942;2023-02-18T13:56:03;99151.95;;;5.81;86.88
68506;BME280;55509;50.680;17.942;2023-02-18T13:59:07;99146.20;;;5.81;86.85
68506;BME280;55509;50.680;17.942;2023-02-18T14:05:23;99128.38;;;5.83;87.41
68506;BME280;55509;50.680;17.942;2023-02-18T14:08:28;99118.75;;;5.84;87.98
68506;BME280;55509;50.680;17.942;2023-02-18T14:11:36;99107.92;;;5.85;88.16
68506;BME280;55509;50.680;17.942;2023-02-18T14:14:40;99090.52;;;5.82;88.87
68506;BME280;55509;50.680;17.942;2023-02-18T14:17:43;99082.20;;;5.79;88.67
68506;BME280;55509;50.680;17.942;2023-02-18T14:20:48;99080.16;;;5.77;89.35
68506;BME280;55509;50.680;17.942;2023-02-18T14:23:56;99073.90;;;5.76;89.30
68506;BME280;55509;50.680;17.942;2023-02-18T14:26:59;99073.05;;;5.73;89.36
68506;BME280;55509;50.680;17.942;2023-02-18T14:33:22;99067.61;;;5.75;89.76
68506;BME280;55509;50.680;17.942;2023-02-18T14:36:29;99065.34;;;5.77;90.14
68506;BME280;55509;50.680;17.942;2023-02-18T14:46:02;99042.08;;;5.89;89.68
68506;BME280;55509;50.680;17.942;2023-02-18T14:52:10;99022.95;;;5.94;89.82
68506;BME280;55509;50.680;17.942;2023-02-18T14:58:28;99008.12;;;6.04;90.24
68506;BME280;55509;50.680;17.942;2023-02-18T15:01:33;98999.41;;;6.11;90.62
68506;BME280;55509;50.680;17.942;2023-02-18T15:04:35;98998.28;;;6.16;90.42
68506;BME280;55509;50.680;17.942;2023-02-18T15:07:36;98993.11;;;6.20;90.93
68506;BME280;55509;50.680;17.942;2023-02-18T15:10:55;98986.66;;;6.20;91.03
68506;BME280;55509;50.680;17.942;2023-02-18T15:13:59;98985.97;;;6.20;90.89
68506;BME280;55509;50.680;17.942;2023-02-18T15:17:01;98979.38;;;6.17;90.36
68506;BME280;55509;50.680;17.942;2023-02-18T15:20:03;98973.58;;;6.20;90.67
68506;BME280;55509;50.680;17.942;2023-02-18T15:23:08;98970.11;;;6.19;91.41
68506;BME280;55509;50.680;17.942;2023-02-18T15:26:12;98963.86;;;6.17;91.32
68506;BME280;55509;50.680;17.942;2023-02-18T15:29:17;98958.82;;;6.16;91.86
68506;BME280;55509;50.680;17.942;2023-02-18T15:32:20;98951.65;;;6.16;92.29
68506;BME280;55509;50.680;17.942;2023-02-18T15:35:25;98951.07;;;6.19;92.56
68506;BME280;55509;50.680;17.942;2023-02-18T15:38:29;98945.38;;;6.24;93.47
68506;BME280;55509;50.680;17.942;2023-02-18T15:41:31;98951.02;;;6.30;93.82
68506;BME280;55509;50.680;17.942;2023-02-18T15:44:33;98954.17;;;6.36;93.85
68506;BME280;55509;50.680;17.942;2023-02-18T15:47:36;98950.02;;;6.43;93.64
68506;BME280;55509;50.680;17.942;2023-02-18T15:50:48;98943.95;;;6.49;93.74
68506;BME280;55509;50.680;17.942;2023-02-18T15:53:51;98945.20;;;6.55;93.75
68506;BME280;55509;50.680;17.942;2023-02-18T15:56:54;98947.36;;;6.59;93.54
68506;BME280;55509;50.680;17.942;2023-02-18T15:59:59;98948.77;;;6.67;93.81
68506;BME280;55509;50.680;17.942;2023-02-18T16:06:22;98932.59;;;6.85;94.76
68506;BME280;55509;50.680;17.942;2023-02-18T16:09:33;98926.76;;;6.95;94.88
68506;BME280;55509;50.680;17.942;2023-02-18T16:12:36;98929.97;;;7.06;94.74
68506;BME280;55509;50.680;17.942;2023-02-18T16:15:39;98934.73;;;7.18;95.42
68506;BME280;55509;50.680;17.942;2023-02-18T16:18:43;98937.94;;;7.29;95.51
68506;BME280;55509;50.680;17.942;2023-02-18T16:21:44;98940.77;;;7.41;96.04
68506;BME280;55509;50.680;17.942;2023-02-18T16:24:47;98942.59;;;7.58;96.00
68506;BME280;55509;50.680;17.942;2023-02-18T16:30:53;98956.56;;;7.84;95.13
68506;BME280;55509;50.680;17.942;2023-02-18T16:33:55;98942.86;;;7.98;95.76
68506;BME280;55509;50.680;17.942;2023-02-18T16:36:56;98939.20;;;8.10;95.45
68506;BME280;55509;50.680;17.942;2023-02-18T16:40:30;98938.99;;;8.22;95.72
68506;BME280;55509;50.680;17.942;2023-02-18T16:43:32;98942.15;;;8.33;95.38
68506;BME280;55509;50.680;17.942;2023-02-18T16:46:33;98935.56;;;8.43;95.10
68506;BME280;55509;50.680;17.942;2023-02-18T16:49:35;98931.30;;;8.50;94.37
68506;BME280;55509;50.680;17.942;2023-02-18T16:52:37;98938.17;;;8.56;93.89
68506;BME280;55509;50.680;17.942;2023-02-18T16:55:38;98946.92;;;8.62;93.83
68506;BME280;55509;50.680;17.942;2023-02-18T16:58:40;98947.67;;;8.66;93.83
68506;BME280;55509;50.680;17.942;2023-02-18T17:01:43;98951.21;;;8.70;93.42
68506;BME280;55509;50.680;17.942;2023-02-18T17:04:45;98955.94;;;8.76;92.78
68506;BME280;55509;50.680;17.942;2023-02-18T17:07:46;98967.41;;;8.84;92.01
68506;BME280;55509;50.680;17.942;2023-02-18T17:10:52;98979.16;;;8.90;91.27
68506;BME280;55509;50.680;17.942;2023-02-18T17:13:55;98979.73;;;8.94;91.07
68506;BME280;55509;50.680;17.942;2023-02-18T17:16:59;98976.88;;;8.95;90.66
68506;BME280;55509;50.680;17.942;2023-02-18T17:20:01;98975.05;;;8.97;90.32
68506;BME280;55509;50.680;17.942;2023-02-18T17:23:03;98972.90;;;8.99;89.64
68506;BME280;55509;50.680;17.942;2023-02-18T17:26:08;98980.34;;;9.02;89.00
68506;BME280;55509;50.680;17.942;2023-02-18T17:29:11;98986.33;;;9.07;88.50
68506;BME280;55509;50.680;17.942;2023-02-18T17:32:14;98992.60;;;9.08;88.10
68506;BME280;55509;50.680;17.942;2023-02-18T17:35:16;98988.05;;;9.07;87.38
68506;BME280;55509;50.680;17.942;2023-02-18T17:38:18;98996.23;;;9.09;87.13
68506;BME280;55509;50.680;17.942;2023-02-18T17:41:20;98992.88;;;9.09;86.76
68506;BME280;55509;50.680;17.942;2023-02-18T17:44:22;98990.76;;;9.10;86.54
68506;BME280;55509;50.680;17.942;2023-02-18T17:47:24;98990.45;;;9.09;86.27
68506;BME280;55509;50.680;17.942;2023-02-18T17:50:25;99000.32;;;9.07;85.98
68506;BME280;55509;50.680;17.942;2023-02-18T17:53:28;98999.51;;;9.06;85.59
68506;BME280;55509;50.680;17.942;2023-02-18T17:56:29;99007.19;;;9.07;85.21
68506;BME280;55509;50.680;17.942;2023-02-18T17:59:31;99014.85;;;9.08;84.92
68506;BME280;55509;50.680;17.942;2023-02-18T18:02:32;99030.05;;;9.10;84.48
68506;BME280;55509;50.680;17.942;2023-02-18T18:05:34;99025.95;;;9.12;83.91
68506;BME280;55509;50.680;17.942;2023-02-18T18:08:36;99035.11;;;9.16;83.25
68506;BME280;55509;50.680;17.942;2023-02-18T18:11:38;99038.36;;;9.19;82.33
68506;BME280;55509;50.680;17.942;2023-02-18T18:14:39;99041.69;;;9.24;81.81
68506;BME280;55509;50.680;17.942;2023-02-18T18:17:41;99050.66;;;9.29;81.59
68506;BME280;55509;50.680;17.942;2023-02-18T18:20:43;99044.64;;;9.31;80.84
68506;BME280;55509;50.680;17.942;2023-02-18T18:23:46;99048.04;;;9.34;80.05
68506;BME280;55509;50.680;17.942;2023-02-18T18:26:48;99051.76;;;9.38;78.96
68506;BME280;55509;50.680;17.942;2023-02-18T18:29:49;99054.40;;;9.44;78.80
68506;BME280;55509;50.680;17.942;2023-02-18T18:32:51;99062.69;;;9.48;78.35
68506;BME280;55509;50.680;17.942;2023-02-18T18:35:53;99064.21;;;9.49;78.33
68506;BME280;55509;50.680;17.942;2023-02-18T18:38:55;99066.49;;;9.49;78.01
68506;BME280;55509;50.680;17.942;2023-02-18T18:41:56;99064.88;;;9.50;77.49